sensor_id;sensor_type;location;lat;lon;timestamp;temperature;humidity
26595;DHT22;14238;49.496;8.154;2023-09-12T00:00:57;18.10;99.90
26595;DHT22;14238;49.496;8.154;2023-09-12T00:03:23;18.10;99.90
26595;DHT22;14238;49.496;8.154;2023-09-12T00:05:53;18.10;99.90
26595;DHT22;14238;49.496;8.154;2023-09-12T00:08:19;18.20;99.90
26595;DHT22;14238;49.496;8.154;2023-09-12T00:10:45;18.10;99.90
26595;DHT22;14238;49.496;8.154;2023-09-12T00:13:10;18.00;99.90
26595;DHT22;14238;49.496;8.154;2023-09-12T00:15:36;18.00;99.90
26595;DHT22;14238;49.496;8.154;2023-09-12T00:18:02;17.90;99.90
26595;DHT22;14238;49.496;8.154;2023-09-12T00:20:28;17.90;99.90
26595;DHT22;14238;49.496;8.154;2023-09-12T00:22:53;17.70;99.90
26595;DHT22;14238;49.496;8.154;2023-09-12T00:25:20;17.70;99.90
26595;DHT22;14238;49.496;8.154;2023-09-12T00:27:46;17.70;99.90
26595;DHT22;14238;49.496;8.154;2023-09-12T00:30:13;17.70;99.90
26595;DHT22;14238;49.496;8.154;2023-09-12T00:32:39;17.70;99.90
26595;DHT22;14238;49.496;8.154;2023-09-12T00:35:05;17.60;99.90
26595;DHT22;14238;49.496;8.154;2023-09-12T00:37:30;17.70;99.90
26595;DHT22;14238;49.496;8.154;2023-09-12T00:39:56;17.60;99.90
26595;DHT22;14238;49.496;8.154;2023-09-12T00:42:24;17.50;99.90
26595;DHT22;14238;49.496;8.154;2023-09-12T00:44:50;17.60;99.90
26595;DHT22;14238;49.496;8.154;2023-09-12T00:47:15;17.70;99.90
26595;DHT22;14238;49.496;8.154;2023-09-12T00:49:41;17.70;99.90
26595;DHT22;14238;49.496;8.154;2023-09-12T00:52:08;17.70;99.90
26595;DHT22;14238;49.496;8.154;2023-09-12T00:54:34;17.70;99.90
26595;DHT22;14238;49.496;8.154;2023-09-12T00:56:59;17.70;99.90
26595;DHT22;14238;49.496;8.154;2023-09-12T00:59:25;17.70;99.90
26595;DHT22;14238;49.496;8.154;2023-09-12T01:01:51;17.70;99.90
26595;DHT22;14238;49.496;8.154;2023-09-12T01:04:16;17.70;99.90
26595;DHT22;14238;49.496;8.154;2023-09-12T01:06:42;17.70;99.90
26595;DHT22;14238;49.496;8.154;2023-09-12T01:09:08;17.60;99.90
26595;DHT22;14238;49.496;8.154;2023-09-12T01:11:34;17.70;99.90
26595;DHT22;14238;49.496;8.154;2023-09-12T01:14:00;17.60;99.90
26595;DHT22;14238;49.496;8.154;2023-09-12T01:16:25;17.60;99.90
26595;DHT22;14238;49.496;8.154;2023-09-12T01:18:51;17.60;99.90
26595;DHT22;14238;49.496;8.154;2023-09-12T01:24:35;17.50;99.90
26595;DHT22;14238;49.496;8.154;2023-09-12T01:27:27;17.50;99.90
26595;DHT22;14238;49.496;8.154;2023-09-12T01:29:57;17.50;99.90
26595;DHT22;14238;49.496;8.154;2023-09-12T01:32:25;17.70;99.90
26595;DHT22;14238;49.496;8.154;2023-09-12T01:34:51;17.70;99.90
26595;DHT22;14238;49.496;8.154;2023-09-12T01:37:17;17.50;99.90
26595;DHT22;14238;49.496;8.154;2023-09-12T01:39:42;17.50;99.90
26595;DHT22;14238;49.496;8.154;2023-09-12T01:42:15;17.50;99.90
26595;DHT22;14238;49.496;8.154;2023-09-12T01:44:43;17.40;99.90
26595;DHT22;14238;49.496;8.154;2023-09-12T01:47:11;17.50;99.90
26595;DHT22;14238;49.496;8.154;2023-09-12T01:49:40;17.60;99.90
26595;DHT22;14238;49.496;8.154;2023-09-12T01:52:06;17.70;99.90
26595;DHT22;14238;49.496;8.154;2023-09-12T01:54:33;17.80;99.90
26595;DHT22;14238;49.496;8.154;2023-09-12T01:57:00;17.70;99.90
26595;DHT22;14238;49.496;8.154;2023-09-12T01:59:27;17.70;99.90
26595;DHT22;14238;49.496;8.154;2023-09-12T02:01:53;17.70;99.90
26595;DHT22;14238;49.496;8.154;2023-09-12T02:04:18;17.70;99.90
26595;DHT22;14238;49.496;8.154;2023-09-12T02:06:44;17.80;99.90
26595;DHT22;14238;49.496;8.154;2023-09-12T02:09:09;17.80;99.90
26595;DHT22;14238;49.496;8.154;2023-09-12T02:11:35;17.80;99.90
26595;DHT22;14238;49.496;8.154;2023-09-12T02:14:00;17.70;99.90
26595;DHT22;14238;49.496;8.154;2023-09-12T02:16:26;17.70;99.90
26595;DHT22;14238;49.496;8.154;2023-09-12T02:18:51;17.80;99.90
26595;DHT22;14238;49.496;8.154;2023-09-12T02:21:17;17.70;99.90
26595;DHT22;14238;49.496;8.154;2023-09-12T02:23:43;17.90;99.90
26595;DHT22;14238;49.496;8.154;2023-09-12T02:26:09;17.80;99.90
26595;DHT22;14238;49.496;8.154;2023-09-12T02:28:34;17.90;99.90
26595;DHT22;14238;49.496;8.154;2023-09-12T02:31:00;17.90;99.90
26595;DHT22;14238;49.496;8.154;2023-09-12T02:33:25;17.90;99.90
26595;DHT22;14238;49.496;8.154;2023-09-12T02:35:51;17.80;99.90
26595;DHT22;14238;49.496;8.154;2023-09-12T02:38:18;17.90;99.90
26595;DHT22;14238;49.496;8.154;2023-09-12T02:40:43;17.90;99.90
26595;DHT22;14238;49.496;8.154;2023-09-12T02:43:09;18.00;99.90
26595;DHT22;14238;49.496;8.154;2023-09-12T02:45:34;18.00;99.90
26595;DHT22;14238;49.496;8.154;2023-09-12T02:48:00;17.90;99.90
26595;DHT22;14238;49.496;8.154;2023-09-12T02:50:25;18.00;99.90
26595;DHT22;14238;49.496;8.154;2023-09-12T02:52:51;18.10;99.90
26595;DHT22;14238;49.496;8.154;2023-09-12T02:55:17;18.00;99.90
26595;DHT22;14238;49.496;8.154;2023-09-12T02:57:42;18.20;99.90
26595;DHT22;14238;49.496;8.154;2023-09-12T03:00:08;18.10;99.90
26595;DHT22;14238;49.496;8.154;2023-09-12T03:02:34;18.20;99.90
26595;DHT22;14238;49.496;8.154;2023-09-12T03:05:00;18.20;99.90
26595;DHT22;14238;49.496;8.154;2023-09-12T03:07:27;18.20;99.90
26595;DHT22;14238;49.496;8.154;2023-09-12T03:09:52;18.20;99.90
26595;DHT22;14238;49.496;8.154;2023-09-12T03:12:18;18.20;99.90
26595;DHT22;14238;49.496;8.154;2023-09-12T03:14:43;18.30;99.90
26595;DHT22;14238;49.496;8.154;2023-09-12T03:17:09;18.30;99.90
26595;DHT22;14238;49.496;8.154;2023-09-12T03:19:34;18.30;99.90
26595;DHT22;14238;49.496;8.154;2023-09-12T03:22:00;18.40;99.90
26595;DHT22;14238;49.496;8.154;2023-09-12T03:24:25;18.40;99.90
26595;DHT22;14238;49.496;8.154;2023-09-12T03:26:51;18.40;99.90
26595;DHT22;14238;49.496;8.154;2023-09-12T03:29:17;18.40;99.90
26595;DHT22;14238;49.496;8.154;2023-09-12T03:31:44;18.50;99.90
26595;DHT22;14238;49.496;8.154;2023-09-12T03:34:09;18.40;99.90
26595;DHT22;14238;49.496;8.154;2023-09-12T03:36:35;18.40;99.90
26595;DHT22;14238;49.496;8.154;2023-09-12T03:39:01;18.40;99.90
26595;DHT22;14238;49.496;8.154;2023-09-12T03:41:26;18.40;99.90
26595;DHT22;14238;49.496;8.154;2023-09-12T03:43:55;18.40;99.90
26595;DHT22;14238;49.496;8.154;2023-09-12T03:46:21;18.40;99.90
26595;DHT22;14238;49.496;8.154;2023-09-12T03:48:47;18.40;99.90
26595;DHT22;14238;49.496;8.154;2023-09-12T03:51:12;18.30;99.90
26595;DHT22;14238;49.496;8.154;2023-09-12T03:53:38;18.30;99.90
26595;DHT22;14238;49.496;8.154;2023-09-12T03:56:04;18.30;99.90
26595;DHT22;14238;49.496;8.154;2023-09-12T03:58:29;18.30;99.90
26595;DHT22;14238;49.496;8.154;2023-09-12T04:00:55;18.30;99.90
26595;DHT22;14238;49.496;8.154;2023-09-12T04:03:20;18.30;99.90
26595;DHT22;14238;49.496;8.154;2023-09-12T04:05:46;18.30;99.90
26595;DHT22;14238;49.496;8.154;2023-09-12T04:08:13;18.30;99.90
26595;DHT22;14238;49.496;8.154;2023-09-12T04:10:38;18.30;99.90
26595;DHT22;14238;49.496;8.154;2023-09-12T04:13:04;18.40;99.90
26595;DHT22;14238;49.496;8.154;2023-09-12T04:15:29;18.30;99.90
26595;DHT22;14238;49.496;8.154;2023-09-12T04:17:55;18.30;99.90
26595;DHT22;14238;49.496;8.154;2023-09-12T04:20:20;18.30;99.90
26595;DHT22;14238;49.496;8.154;2023-09-12T04:22:46;18.30;99.90
26595;DHT22;14238;49.496;8.154;2023-09-12T04:25:12;18.30;99.90
26595;DHT22;14238;49.496;8.154;2023-09-12T04:27:37;18.40;99.90
26595;DHT22;14238;49.496;8.154;2023-09-12T04:30:03;18.30;99.90
26595;DHT22;14238;49.496;8.154;2023-09-12T04:32:29;18.30;99.90
26595;DHT22;14238;49.496;8.154;2023-09-12T04:34:55;18.30;99.90
26595;DHT22;14238;49.496;8.154;2023-09-12T04:37:20;18.20;99.90
26595;DHT22;14238;49.496;8.154;2023-09-12T04:39:46;18.20;99.90
26595;DHT22;14238;49.496;8.154;2023-09-12T04:42:12;18.10;99.90
26595;DHT22;14238;49.496;8.154;2023-09-12T04:44:39;18.10;99.90
26595;DHT22;14238;49.496;8.154;2023-09-12T04:47:05;18.00;99.90
26595;DHT22;14238;49.496;8.154;2023-09-12T04:49:31;18.00;99.90
26595;DHT22;14238;49.496;8.154;2023-09-12T04:51:56;18.00;99.90
26595;DHT22;14238;49.496;8.154;2023-09-12T04:54:22;17.80;99.90
26595;DHT22;14238;49.496;8.154;2023-09-12T04:56:47;17.90;99.90
26595;DHT22;14238;49.496;8.154;2023-09-12T04:59:13;17.70;99.90
26595;DHT22;14238;49.496;8.154;2023-09-12T05:01:39;17.60;99.90
26595;DHT22;14238;49.496;8.154;2023-09-12T05:04:04;17.60;99.90
26595;DHT22;14238;49.496;8.154;2023-09-12T05:06:30;17.60;99.90
26595;DHT22;14238;49.496;8.154;2023-09-12T05:08:55;17.60;99.90
26595;DHT22;14238;49.496;8.154;2023-09-12T05:11:22;17.60;99.90
26595;DHT22;14238;49.496;8.154;2023-09-12T05:13:49;17.40;99.90
26595;DHT22;14238;49.496;8.154;2023-09-12T05:16:14;17.50;99.90
26595;DHT22;14238;49.496;8.154;2023-09-12T05:18:40;17.50;99.90
26595;DHT22;14238;49.496;8.154;2023-09-12T05:21:06;17.50;99.90
26595;DHT22;14238;49.496;8.154;2023-09-12T05:23:31;17.60;99.90
26595;DHT22;14238;49.496;8.154;2023-09-12T05:25:57;17.50;99.90
26595;DHT22;14238;49.496;8.154;2023-09-12T05:28:22;17.40;99.90
26595;DHT22;14238;49.496;8.154;2023-09-12T05:30:48;17.50;99.90
26595;DHT22;14238;49.496;8.154;2023-09-12T05:33:14;17.50;99.90
26595;DHT22;14238;49.496;8.154;2023-09-12T05:35:39;17.60;99.90
26595;DHT22;14238;49.496;8.154;2023-09-12T05:38:05;17.60;99.90
26595;DHT22;14238;49.496;8.154;2023-09-12T05:40:31;17.60;99.90
26595;DHT22;14238;49.496;8.154;2023-09-12T05:42:56;17.70;99.90
26595;DHT22;14238;49.496;8.154;2023-09-12T05:45:22;17.60;99.90
26595;DHT22;14238;49.496;8.154;2023-09-12T05:47:48;17.60;99.90
26595;DHT22;14238;49.496;8.154;2023-09-12T05:50:14;17.50;99.90
26595;DHT22;14238;49.496;8.154;2023-09-12T05:52:39;17.60;99.90
26595;DHT22;14238;49.496;8.154;2023-09-12T05:55:07;17.60;99.90
26595;DHT22;14238;49.496;8.154;2023-09-12T05:57:32;17.70;99.90
26595;DHT22;14238;49.496;8.154;2023-09-12T05:59:58;17.70;99.90
26595;DHT22;14238;49.496;8.154;2023-09-12T06:02:25;17.70;99.90
26595;DHT22;14238;49.496;8.154;2023-09-12T06:04:51;17.80;99.90
26595;DHT22;14238;49.496;8.154;2023-09-12T06:07:16;18.00;99.90
26595;DHT22;14238;49.496;8.154;2023-09-12T06:09:43;18.00;99.90
26595;DHT22;14238;49.496;8.154;2023-09-12T06:12:09;18.00;99.90
26595;DHT22;14238;49.496;8.154;2023-09-12T06:14:34;18.10;99.90
26595;DHT22;14238;49.496;8.154;2023-09-12T06:17:00;18.30;99.90
26595;DHT22;14238;49.496;8.154;2023-09-12T06:19:25;18.40;99.90
26595;DHT22;14238;49.496;8.154;2023-09-12T06:21:51;18.60;99.90
26595;DHT22;14238;49.496;8.154;2023-09-12T06:24:18;18.70;99.90
26595;DHT22;14238;49.496;8.154;2023-09-12T06:26:44;18.80;99.90
26595;DHT22;14238;49.496;8.154;2023-09-12T06:29:10;18.80;99.90
26595;DHT22;14238;49.496;8.154;2023-09-12T06:31:36;18.90;99.90
26595;DHT22;14238;49.496;8.154;2023-09-12T06:34:02;18.90;99.90
26595;DHT22;14238;49.496;8.154;2023-09-12T06:36:28;19.00;99.90
26595;DHT22;14238;49.496;8.154;2023-09-12T06:38:57;19.10;99.90
26595;DHT22;14238;49.496;8.154;2023-09-12T06:41:23;19.10;99.90
26595;DHT22;14238;49.496;8.154;2023-09-12T06:43:48;19.10;99.90
26595;DHT22;14238;49.496;8.154;2023-09-12T06:46:14;19.20;99.90
26595;DHT22;14238;49.496;8.154;2023-09-12T06:48:43;19.20;99.90
26595;DHT22;14238;49.496;8.154;2023-09-12T06:51:09;19.20;99.90
26595;DHT22;14238;49.496;8.154;2023-09-12T06:53:35;19.20;99.90
26595;DHT22;14238;49.496;8.154;2023-09-12T06:56:03;19.20;99.90
26595;DHT22;14238;49.496;8.154;2023-09-12T06:58:28;19.20;99.90
26595;DHT22;14238;49.496;8.154;2023-09-12T07:00:54;19.30;99.90
26595;DHT22;14238;49.496;8.154;2023-09-12T07:03:19;19.30;99.90
26595;DHT22;14238;49.496;8.154;2023-09-12T07:05:45;19.40;99.90
26595;DHT22;14238;49.496;8.154;2023-09-12T07:08:10;19.50;99.90
26595;DHT22;14238;49.496;8.154;2023-09-12T07:10:36;19.50;99.90
26595;DHT22;14238;49.496;8.154;2023-09-12T07:13:02;19.60;99.90
26595;DHT22;14238;49.496;8.154;2023-09-12T07:15:28;19.70;99.90
26595;DHT22;14238;49.496;8.154;2023-09-12T07:17:54;19.80;99.90
26595;DHT22;14238;49.496;8.154;2023-09-12T07:20:19;20.00;99.90
26595;DHT22;14238;49.496;8.154;2023-09-12T07:22:46;20.10;99.90
26595;DHT22;14238;49.496;8.154;2023-09-12T07:25:13;20.10;99.90
26595;DHT22;14238;49.496;8.154;2023-09-12T07:27:39;20.20;99.90
26595;DHT22;14238;49.496;8.154;2023-09-12T07:30:06;20.30;99.90
26595;DHT22;14238;49.496;8.154;2023-09-12T07:32:31;20.40;99.90
26595;DHT22;14238;49.496;8.154;2023-09-12T07:34:57;20.50;99.90
26595;DHT22;14238;49.496;8.154;2023-09-12T07:37:23;20.70;99.90
26595;DHT22;14238;49.496;8.154;2023-09-12T07:39:48;20.70;99.90
26595;DHT22;14238;49.496;8.154;2023-09-12T07:42:14;20.70;99.90
26595;DHT22;14238;49.496;8.154;2023-09-12T07:44:39;20.80;99.90
26595;DHT22;14238;49.496;8.154;2023-09-12T07:47:05;20.80;99.90
26595;DHT22;14238;49.496;8.154;2023-09-12T07:49:30;20.90;99.90
26595;DHT22;14238;49.496;8.154;2023-09-12T07:51:56;20.90;99.90
26595;DHT22;14238;49.496;8.154;2023-09-12T07:54:22;21.10;99.90
26595;DHT22;14238;49.496;8.154;2023-09-12T07:56:48;21.20;99.90
26595;DHT22;14238;49.496;8.154;2023-09-12T07:59:14;21.20;99.90
26595;DHT22;14238;49.496;8.154;2023-09-12T08:01:40;21.20;99.90
26595;DHT22;14238;49.496;8.154;2023-09-12T08:04:06;21.30;99.90
26595;DHT22;14238;49.496;8.154;2023-09-12T08:06:32;21.40;99.90
26595;DHT22;14238;49.496;8.154;2023-09-12T08:08:58;21.60;99.90
26595;DHT22;14238;49.496;8.154;2023-09-12T08:11:23;21.70;99.90
26595;DHT22;14238;49.496;8.154;2023-09-12T08:13:49;21.80;99.90
26595;DHT22;14238;49.496;8.154;2023-09-12T08:16:15;21.90;99.90
26595;DHT22;14238;49.496;8.154;2023-09-12T08:18:41;22.00;99.90
26595;DHT22;14238;49.496;8.154;2023-09-12T08:21:07;22.10;99.90
26595;DHT22;14238;49.496;8.154;2023-09-12T08:23:32;22.20;99.90
26595;DHT22;14238;49.496;8.154;2023-09-12T08:25:58;22.30;99.90
26595;DHT22;14238;49.496;8.154;2023-09-12T08:28:23;22.40;99.90
26595;DHT22;14238;49.496;8.154;2023-09-12T08:30:49;22.80;99.90
26595;DHT22;14238;49.496;8.154;2023-09-12T08:33:15;23.40;99.90
26595;DHT22;14238;49.496;8.154;2023-09-12T08:35:40;24.10;99.90
26595;DHT22;14238;49.496;8.154;2023-09-12T08:38:06;24.60;99.90
26595;DHT22;14238;49.496;8.154;2023-09-12T08:40:33;25.20;99.90
26595;DHT22;14238;49.496;8.154;2023-09-12T08:42:59;25.60;99.90
26595;DHT22;14238;49.496;8.154;2023-09-12T08:45:24;26.10;99.90
26595;DHT22;14238;49.496;8.154;2023-09-12T08:47:52;26.50;99.90
26595;DHT22;14238;49.496;8.154;2023-09-12T08:50:18;27.00;99.90
26595;DHT22;14238;49.496;8.154;2023-09-12T08:52:46;27.10;99.90
26595;DHT22;14238;49.496;8.154;2023-09-12T08:55:12;27.40;99.90
26595;DHT22;14238;49.496;8.154;2023-09-12T08:57:40;27.80;99.90
26595;DHT22;14238;49.496;8.154;2023-09-12T09:00:06;28.20;99.90
26595;DHT22;14238;49.496;8.154;2023-09-12T09:02:34;28.10;99.90
26595;DHT22;14238;49.496;8.154;2023-09-12T09:05:02;27.60;99.90
26595;DHT22;14238;49.496;8.154;2023-09-12T09:07:33;26.90;99.90
26595;DHT22;14238;49.496;8.154;2023-09-12T09:10:02;26.50;99.90
26595;DHT22;14238;49.496;8.154;2023-09-12T09:12:30;26.40;99.90
26595;DHT22;14238;49.496;8.154;2023-09-12T09:14:55;26.40;99.90
26595;DHT22;14238;49.496;8.154;2023-09-12T09:17:21;27.10;99.90
26595;DHT22;14238;49.496;8.154;2023-09-12T09:19:46;27.80;99.90
26595;DHT22;14238;49.496;8.154;2023-09-12T09:22:13;28.10;99.90
26595;DHT22;14238;49.496;8.154;2023-09-12T09:24:38;28.40;99.90
26595;DHT22;14238;49.496;8.154;2023-09-12T09:27:05;28.90;99.90
26595;DHT22;14238;49.496;8.154;2023-09-12T09:29:31;29.00;99.90
26595;DHT22;14238;49.496;8.154;2023-09-12T09:32:00;29.40;99.90
26595;DHT22;14238;49.496;8.154;2023-09-12T09:34:26;29.20;99.90
26595;DHT22;14238;49.496;8.154;2023-09-12T09:36:57;29.40;99.90
26595;DHT22;14238;49.496;8.154;2023-09-12T09:39:24;29.30;99.90
26595;DHT22;14238;49.496;8.154;2023-09-12T09:41:52;29.00;99.90
26595;DHT22;14238;49.496;8.154;2023-09-12T09:44:18;28.60;99.90
26595;DHT22;14238;49.496;8.154;2023-09-12T09:46:45;28.60;99.90
26595;DHT22;14238;49.496;8.154;2023-09-12T09:49:11;28.70;99.90
26595;DHT22;14238;49.496;8.154;2023-09-12T09:51:44;29.00;99.90
26595;DHT22;14238;49.496;8.154;2023-09-12T09:54:11;29.20;99.90
26595;DHT22;14238;49.496;8.154;2023-09-12T09:56:47;29.30;99.90
26595;DHT22;14238;49.496;8.154;2023-09-12T09:59:15;29.80;99.90
26595;DHT22;14238;49.496;8.154;2023-09-12T10:01:42;30.10;99.90
26595;DHT22;14238;49.496;8.154;2023-09-12T10:04:08;30.10;99.90
26595;DHT22;14238;49.496;8.154;2023-09-12T10:06:36;30.00;99.90
26595;DHT22;14238;49.496;8.154;2023-09-12T10:09:06;30.70;99.90
26595;DHT22;14238;49.496;8.154;2023-09-12T10:11:33;30.80;99.90
26595;DHT22;14238;49.496;8.154;2023-09-12T10:14:05;31.10;99.90
26595;DHT22;14238;49.496;8.154;2023-09-12T10:16:33;31.30;99.90
26595;DHT22;14238;49.496;8.154;2023-09-12T10:24:27;32.00;99.90
26595;DHT22;14238;49.496;8.154;2023-09-12T10:26:53;32.20;99.90
26595;DHT22;14238;49.496;8.154;2023-09-12T10:29:20;32.00;99.90
26595;DHT22;14238;49.496;8.154;2023-09-12T10:31:48;31.90;99.90
26595;DHT22;14238;49.496;8.154;2023-09-12T10:34:15;32.10;99.90
26595;DHT22;14238;49.496;8.154;2023-09-12T10:36:41;32.00;99.90
26595;DHT22;14238;49.496;8.154;2023-09-12T10:39:08;32.00;99.90
26595;DHT22;14238;49.496;8.154;2023-09-12T10:41:37;31.80;99.90
26595;DHT22;14238;49.496;8.154;2023-09-12T10:44:09;32.10;99.90
26595;DHT22;14238;49.496;8.154;2023-09-12T10:46:37;32.30;99.90
26595;DHT22;14238;49.496;8.154;2023-09-12T10:49:09;32.40;99.90
26595;DHT22;14238;49.496;8.154;2023-09-12T10:51:44;32.50;99.90
26595;DHT22;14238;49.496;8.154;2023-09-12T10:54:15;32.40;99.90
26595;DHT22;14238;49.496;8.154;2023-09-12T10:56:41;32.60;99.90
26595;DHT22;14238;49.496;8.154;2023-09-12T11:01:38;32.50;99.90
26595;DHT22;14238;49.496;8.154;2023-09-12T11:06:46;32.40;99.90
26595;DHT22;14238;49.496;8.154;2023-09-12T11:12:09;32.50;99.90
26595;DHT22;14238;49.496;8.154;2023-09-12T11:14:35;32.50;99.90
26595;DHT22;14238;49.496;8.154;2023-09-12T11:19:49;32.30;99.90
26595;DHT22;14238;49.496;8.154;2023-09-12T11:24:50;32.90;99.90
26595;DHT22;14238;49.496;8.154;2023-09-12T11:27:15;32.90;99.90
26595;DHT22;14238;49.496;8.154;2023-09-12T11:29:42;32.90;99.90
26595;DHT22;14238;49.496;8.154;2023-09-12T11:32:08;33.10;99.90
26595;DHT22;14238;49.496;8.154;2023-09-12T11:34:44;33.20;99.90
26595;DHT22;14238;49.496;8.154;2023-09-12T11:37:22;33.40;99.90
26595;DHT22;14238;49.496;8.154;2023-09-12T11:39:48;33.70;99.90
26595;DHT22;14238;49.496;8.154;2023-09-12T11:42:16;33.60;99.90
26595;DHT22;14238;49.496;8.154;2023-09-12T11:44:41;33.30;99.90
26595;DHT22;14238;49.496;8.154;2023-09-12T11:47:10;33.40;99.90
26595;DHT22;14238;49.496;8.154;2023-09-12T11:49:37;33.40;99.90
26595;DHT22;14238;49.496;8.154;2023-09-12T11:54:30;32.60;99.90
26595;DHT22;14238;49.496;8.154;2023-09-12T11:56:57;32.90;99.90
26595;DHT22;14238;49.496;8.154;2023-09-12T11:59:27;33.10;99.90
26595;DHT22;14238;49.496;8.154;2023-09-12T12:01:54;33.70;99.90
26595;DHT22;14238;49.496;8.154;2023-09-12T12:04:25;34.00;99.90
26595;DHT22;14238;49.496;8.154;2023-09-12T12:06:52;34.00;99.50
26595;DHT22;14238;49.496;8.154;2023-09-12T12:09:18;34.30;99.70
26595;DHT22;14238;49.496;8.154;2023-09-12T12:11:46;34.80;99.90
26595;DHT22;14238;49.496;8.154;2023-09-12T12:14:16;34.90;98.70
26595;DHT22;14238;49.496;8.154;2023-09-12T12:16:43;34.90;99.40
26595;DHT22;14238;49.496;8.154;2023-09-12T12:19:09;35.10;98.90
26595;DHT22;14238;49.496;8.154;2023-09-12T12:21:40;35.20;98.30
26595;DHT22;14238;49.496;8.154;2023-09-12T12:24:09;35.20;99.00
26595;DHT22;14238;49.496;8.154;2023-09-12T12:26:35;35.20;98.80
26595;DHT22;14238;49.496;8.154;2023-09-12T12:29:01;35.00;98.80
26595;DHT22;14238;49.496;8.154;2023-09-12T12:31:27;35.00;98.00
26595;DHT22;14238;49.496;8.154;2023-09-12T12:33:53;34.80;98.00
26595;DHT22;14238;49.496;8.154;2023-09-12T12:36:20;34.60;98.80
26595;DHT22;14238;49.496;8.154;2023-09-12T12:38:47;34.60;98.90
26595;DHT22;14238;49.496;8.154;2023-09-12T12:41:15;34.50;99.00
26595;DHT22;14238;49.496;8.154;2023-09-12T12:43:41;34.60;98.70
26595;DHT22;14238;49.496;8.154;2023-09-12T12:46:10;34.40;98.80
26595;DHT22;14238;49.496;8.154;2023-09-12T12:48:37;34.50;99.50
26595;DHT22;14238;49.496;8.154;2023-09-12T12:51:20;34.40;98.30
26595;DHT22;14238;49.496;8.154;2023-09-12T12:53:49;34.30;98.40
26595;DHT22;14238;49.496;8.154;2023-09-12T12:56:18;34.10;98.40
26595;DHT22;14238;49.496;8.154;2023-09-12T12:58:55;33.80;98.90
26595;DHT22;14238;49.496;8.154;2023-09-12T13:01:22;34.20;99.70
26595;DHT22;14238;49.496;8.154;2023-09-12T13:03:48;34.40;98.50
26595;DHT22;14238;49.496;8.154;2023-09-12T13:06:17;33.70;97.40
26595;DHT22;14238;49.496;8.154;2023-09-12T13:08:44;33.50;98.40
26595;DHT22;14238;49.496;8.154;2023-09-12T13:11:11;32.90;99.20
26595;DHT22;14238;49.496;8.154;2023-09-12T13:13:38;33.30;99.80
26595;DHT22;14238;49.496;8.154;2023-09-12T13:16:05;33.20;99.80
26595;DHT22;14238;49.496;8.154;2023-09-12T13:18:34;32.80;99.80
26595;DHT22;14238;49.496;8.154;2023-09-12T13:20:59;33.00;99.80
26595;DHT22;14238;49.496;8.154;2023-09-12T13:23:25;33.40;99.80
26595;DHT22;14238;49.496;8.154;2023-09-12T13:25:51;33.10;99.00
26595;DHT22;14238;49.496;8.154;2023-09-12T13:28:17;33.40;99.50
26595;DHT22;14238;49.496;8.154;2023-09-12T13:30:42;33.70;97.70
26595;DHT22;14238;49.496;8.154;2023-09-12T13:33:08;33.90;98.40
26595;DHT22;14238;49.496;8.154;2023-09-12T13:35:34;33.80;98.80
26595;DHT22;14238;49.496;8.154;2023-09-12T13:37:59;34.00;97.80
26595;DHT22;14238;49.496;8.154;2023-09-12T13:40:25;33.80;98.50
26595;DHT22;14238;49.496;8.154;2023-09-12T13:42:50;33.00;98.30
26595;DHT22;14238;49.496;8.154;2023-09-12T13:45:16;33.00;99.20
26595;DHT22;14238;49.496;8.154;2023-09-12T13:47:41;32.70;99.90
26595;DHT22;14238;49.496;8.154;2023-09-12T13:50:08;32.30;99.90
26595;DHT22;14238;49.496;8.154;2023-09-12T13:52:33;31.90;99.90
26595;DHT22;14238;49.496;8.154;2023-09-12T13:54:59;32.50;99.90
26595;DHT22;14238;49.496;8.154;2023-09-12T13:57:28;33.00;99.90
26595;DHT22;14238;49.496;8.154;2023-09-12T13:59:54;33.10;99.70
26595;DHT22;14238;49.496;8.154;2023-09-12T14:02:20;33.40;99.40
26595;DHT22;14238;49.496;8.154;2023-09-12T14:04:45;33.60;99.50
26595;DHT22;14238;49.496;8.154;2023-09-12T14:07:11;33.50;98.60
26595;DHT22;14238;49.496;8.154;2023-09-12T14:09:36;33.20;98.60
26595;DHT22;14238;49.496;8.154;2023-09-12T14:12:04;33.30;99.90
26595;DHT22;14238;49.496;8.154;2023-09-12T14:14:31;33.40;99.30
26595;DHT22;14238;49.496;8.154;2023-09-12T14:16:56;33.20;99.00
26595;DHT22;14238;49.496;8.154;2023-09-12T14:19:22;33.10;99.40
26595;DHT22;14238;49.496;8.154;2023-09-12T14:21:47;33.10;99.20
26595;DHT22;14238;49.496;8.154;2023-09-12T14:24:13;32.80;99.10
26595;DHT22;14238;49.496;8.154;2023-09-12T14:26:38;32.40;99.60
26595;DHT22;14238;49.496;8.154;2023-09-12T14:29:04;32.20;99.90
26595;DHT22;14238;49.496;8.154;2023-09-12T14:31:30;31.70;99.90
26595;DHT22;14238;49.496;8.154;2023-09-12T14:33:55;31.70;99.90
26595;DHT22;14238;49.496;8.154;2023-09-12T14:36:21;32.00;99.90
26595;DHT22;14238;49.496;8.154;2023-09-12T14:38:47;32.20;99.90
26595;DHT22;14238;49.496;8.154;2023-09-12T14:41:13;32.40;99.90
26595;DHT22;14238;49.496;8.154;2023-09-12T14:43:39;32.20;99.90
26595;DHT22;14238;49.496;8.154;2023-09-12T14:46:04;32.00;99.90
26595;DHT22;14238;49.496;8.154;2023-09-12T14:48:31;32.10;99.90
26595;DHT22;14238;49.496;8.154;2023-09-12T14:50:59;32.10;99.90
26595;DHT22;14238;49.496;8.154;2023-09-12T14:53:26;32.30;99.90
26595;DHT22;14238;49.496;8.154;2023-09-12T14:55:53;32.10;99.90
26595;DHT22;14238;49.496;8.154;2023-09-12T14:58:18;32.00;99.90
26595;DHT22;14238;49.496;8.154;2023-09-12T15:00:44;31.70;99.90
26595;DHT22;14238;49.496;8.154;2023-09-12T15:03:10;31.70;99.90
26595;DHT22;14238;49.496;8.154;2023-09-12T15:05:35;31.80;99.90
26595;DHT22;14238;49.496;8.154;2023-09-12T15:08:01;31.90;99.90
26595;DHT22;14238;49.496;8.154;2023-09-12T15:10:26;31.70;99.50
26595;DHT22;14238;49.496;8.154;2023-09-12T15:12:52;31.40;99.90
26595;DHT22;14238;49.496;8.154;2023-09-12T15:15:19;31.20;99.90
26595;DHT22;14238;49.496;8.154;2023-09-12T15:17:44;31.00;99.90
26595;DHT22;14238;49.496;8.154;2023-09-12T15:20:11;30.90;99.90
26595;DHT22;14238;49.496;8.154;2023-09-12T15:22:36;30.90;99.90
26595;DHT22;14238;49.496;8.154;2023-09-12T15:25:02;30.60;99.90
26595;DHT22;14238;49.496;8.154;2023-09-12T15:27:28;30.40;99.90
26595;DHT22;14238;49.496;8.154;2023-09-12T15:29:55;30.20;99.90
26595;DHT22;14238;49.496;8.154;2023-09-12T15:32:20;30.10;99.90
26595;DHT22;14238;49.496;8.154;2023-09-12T15:34:46;30.10;99.90
26595;DHT22;14238;49.496;8.154;2023-09-12T15:37:13;30.00;99.90
26595;DHT22;14238;49.496;8.154;2023-09-12T15:39:39;29.90;99.90
26595;DHT22;14238;49.496;8.154;2023-09-12T15:42:06;29.80;99.90
26595;DHT22;14238;49.496;8.154;2023-09-12T15:44:31;29.70;99.90
26595;DHT22;14238;49.496;8.154;2023-09-12T15:46:57;29.60;99.90
26595;DHT22;14238;49.496;8.154;2023-09-12T15:49:24;29.60;99.90